sensor_id;sensor_type;location;lat;lon;timestamp;pressure;altitude;pressure_sealevel;temperature;humidity
68226;BME280;55045;49.410;11.030;2022-08-14T00:01:03;97743.28;;;18.74;100.00
68226;BME280;55045;49.410;11.030;2022-08-14T00:04:11;97753.03;;;18.62;100.00
68226;BME280;55045;49.410;11.030;2022-08-14T00:07:34;97745.50;;;18.88;100.00
68226;BME280;55045;49.410;11.030;2022-08-14T00:10:44;97751.47;;;18.81;100.00
68226;BME280;55045;49.410;11.030;2022-08-14T00:13:52;97747.41;;;18.77;100.00
68226;BME280;55045;49.410;11.030;2022-08-14T00:16:56;97745.13;;;18.53;100.00
68226;BME280;55045;49.410;11.030;2022-08-14T00:20:03;97742.97;;;18.67;100.00
68226;BME280;55045;49.410;11.030;2022-08-14T00:23:09;97739.03;;;18.52;100.00
68226;BME280;55045;49.410;11.030;2022-08-14T00:26:19;97735.13;;;18.47;100.00
68226;BME280;55045;49.410;11.030;2022-08-14T00:29:24;97736.84;;;18.27;100.00
68226;BME280;55045;49.410;11.030;2022-08-14T00:32:28;97733.91;;;18.20;100.00
68226;BME280;55045;49.410;11.030;2022-08-14T00:35:52;97730.78;;;18.05;100.00
68226;BME280;55045;49.410;11.030;2022-08-14T00:39:16;97706.47;;;18.03;100.00
68226;BME280;55045;49.410;11.030;2022-08-14T00:42:21;97731.66;;;18.16;100.00
68226;BME280;55045;49.410;11.030;2022-08-14T00:45:44;97701.00;;;17.85;100.00
68226;BME280;55045;49.410;11.030;2022-08-14T00:48:53;97710.34;;;17.99;100.00
68226;BME280;55045;49.410;11.030;2022-08-14T00:51:59;97704.19;;;17.89;100.00
68226;BME280;55045;49.410;11.030;2022-08-14T00:55:05;97716.78;;;17.95;100.00
68226;BME280;55045;49.410;11.030;2022-08-14T00:58:10;97719.03;;;18.00;100.00
68226;BME280;55045;49.410;11.030;2022-08-14T01:01:34;97707.13;;;17.96;100.00
68226;BME280;55045;49.410;11.030;2022-08-14T01:04:38;97700.91;;;17.97;100.00
68226;BME280;55045;49.410;11.030;2022-08-14T01:07:55;97703.09;;;17.92;100.00
68226;BME280;55045;49.410;11.030;2022-08-14T01:10:59;97704.31;;;17.88;100.00
68226;BME280;55045;49.410;11.030;2022-08-14T01:14:05;97699.53;;;17.72;100.00
68226;BME280;55045;49.410;11.030;2022-08-14T01:17:30;97699.19;;;17.65;100.00
68226;BME280;55045;49.410;11.030;2022-08-14T01:20:52;97699.69;;;17.59;100.00
68226;BME280;55045;49.410;11.030;2022-08-14T01:24:10;97691.44;;;17.64;100.00
68226;BME280;55045;49.410;11.030;2022-08-14T01:27:25;97693.50;;;17.60;100.00
68226;BME280;55045;49.410;11.030;2022-08-14T01:30:30;97694.31;;;17.61;100.00
68226;BME280;55045;49.410;11.030;2022-08-14T01:33:42;97695.41;;;17.58;100.00
68226;BME280;55045;49.410;11.030;2022-08-14T01:37:07;97691.25;;;17.55;100.00
68226;BME280;55045;49.410;11.030;2022-08-14T01:40:13;97692.91;;;17.56;100.00
68226;BME280;55045;49.410;11.030;2022-08-14T01:43:21;97692.34;;;17.53;100.00
68226;BME280;55045;49.410;11.030;2022-08-14T01:46:30;97691.63;;;17.51;100.00
68226;BME280;55045;49.410;11.030;2022-08-14T01:49:38;97668.72;;;17.32;100.00
68226;BME280;55045;49.410;11.030;2022-08-14T01:53:00;97671.44;;;17.42;100.00
68226;BME280;55045;49.410;11.030;2022-08-14T01:56:05;97666.63;;;17.47;100.00
68226;BME280;55045;49.410;11.030;2022-08-14T01:59:20;97662.25;;;17.36;100.00
68226;BME280;55045;49.410;11.030;2022-08-14T02:02:27;97665.41;;;17.30;100.00
68226;BME280;55045;49.410;11.030;2022-08-14T02:05:38;97665.06;;;17.23;100.00
68226;BME280;55045;49.410;11.030;2022-08-14T02:08:41;97665.22;;;17.22;100.00
68226;BME280;55045;49.410;11.030;2022-08-14T02:11:57;97667.44;;;17.26;100.00
68226;BME280;55045;49.410;11.030;2022-08-14T02:15:04;97658.34;;;17.10;100.00
68226;BME280;55045;49.410;11.030;2022-08-14T02:18:10;97661.69;;;17.12;100.00
68226;BME280;55045;49.410;11.030;2022-08-14T02:21:16;97645.38;;;17.08;100.00
68226;BME280;55045;49.410;11.030;2022-08-14T02:24:25;97648.13;;;17.07;100.00
68226;BME280;55045;49.410;11.030;2022-08-14T02:27:43;97646.28;;;16.97;100.00
68226;BME280;55045;49.410;11.030;2022-08-14T02:31:08;97641.31;;;16.83;100.00
68226;BME280;55045;49.410;11.030;2022-08-14T02:34:25;97640.84;;;16.78;100.00
68226;BME280;55045;49.410;11.030;2022-08-14T02:37:35;97636.47;;;16.67;100.00
68226;BME280;55045;49.410;11.030;2022-08-14T02:40:51;97632.53;;;16.62;100.00
68226;BME280;55045;49.410;11.030;2022-08-14T02:43:55;97631.69;;;16.73;100.00
68226;BME280;55045;49.410;11.030;2022-08-14T02:47:02;97594.13;;;16.51;100.00
68226;BME280;55045;49.410;11.030;2022-08-14T02:50:16;97564.81;;;16.25;100.00
68226;BME280;55045;49.410;11.030;2022-08-14T02:53:28;97615.16;;;16.61;100.00
68226;BME280;55045;49.410;11.030;2022-08-14T02:56:34;97595.03;;;16.18;100.00
68226;BME280;55045;49.410;11.030;2022-08-14T03:00:00;97610.91;;;16.49;100.00
68226;BME280;55045;49.410;11.030;2022-08-14T03:03:10;97608.31;;;16.49;100.00
68226;BME280;55045;49.410;11.030;2022-08-14T03:06:14;97611.06;;;16.36;100.00
68226;BME280;55045;49.410;11.030;2022-08-14T03:09:36;97613.94;;;16.22;100.00
68226;BME280;55045;49.410;11.030;2022-08-14T03:13:00;97602.66;;;16.10;100.00
68226;BME280;55045;49.410;11.030;2022-08-14T03:16:08;97617.06;;;16.16;100.00
68226;BME280;55045;49.410;11.030;2022-08-14T03:19:27;97490.25;;;15.43;100.00
68226;BME280;55045;49.410;11.030;2022-08-14T03:22:31;97607.84;;;16.32;100.00
68226;BME280;55045;49.410;11.030;2022-08-14T03:25:34;97605.97;;;16.23;100.00
68226;BME280;55045;49.410;11.030;2022-08-14T03:28:43;97599.44;;;16.18;100.00
68226;BME280;55045;49.410;11.030;2022-08-14T03:34:33;97599.78;;;16.13;100.00
68226;BME280;55045;49.410;11.030;2022-08-14T03:38:03;97608.59;;;16.12;100.00
68226;BME280;55045;49.410;11.030;2022-08-14T03:41:30;97596.81;;;16.18;100.00
68226;BME280;55045;49.410;11.030;2022-08-14T03:44:34;97589.69;;;16.20;100.00
68226;BME280;55045;49.410;11.030;2022-08-14T03:47:59;97588.88;;;15.97;100.00
68226;BME280;55045;49.410;11.030;2022-08-14T03:51:13;97582.22;;;16.15;100.00
68226;BME280;55045;49.410;11.030;2022-08-14T03:54:17;97564.53;;;15.85;100.00
68226;BME280;55045;49.410;11.030;2022-08-14T03:57:21;97571.97;;;16.12;100.00
68226;BME280;55045;49.410;11.030;2022-08-14T04:00:25;97564.00;;;16.13;100.00
68226;BME280;55045;49.410;11.030;2022-08-14T04:03:45;97572.69;;;16.25;100.00
68226;BME280;55045;49.410;11.030;2022-08-14T04:06:50;97558.09;;;16.00;100.00
68226;BME280;55045;49.410;11.030;2022-08-14T04:10:00;97546.28;;;16.17;100.00
68226;BME280;55045;49.410;11.030;2022-08-14T04:13:04;97554.88;;;16.08;100.00
68226;BME280;55045;49.410;11.030;2022-08-14T04:16:11;97561.63;;;16.10;100.00
68226;BME280;55045;49.410;11.030;2022-08-14T04:19:16;97562.13;;;15.93;100.00
68226;BME280;55045;49.410;11.030;2022-08-14T04:22:22;97555.94;;;15.83;100.00
68226;BME280;55045;49.410;11.030;2022-08-14T04:25:26;97548.00;;;15.84;100.00
68226;BME280;55045;49.410;11.030;2022-08-14T04:28:30;97565.50;;;15.84;100.00
68226;BME280;55045;49.410;11.030;2022-08-14T04:31:53;97557.75;;;15.71;100.00
68226;BME280;55045;49.410;11.030;2022-08-14T04:35:16;97557.16;;;15.68;100.00
68226;BME280;55045;49.410;11.030;2022-08-14T04:38:26;97550.63;;;15.84;100.00
68226;BME280;55045;49.410;11.030;2022-08-14T04:41:48;97539.31;;;15.73;100.00
68226;BME280;55045;49.410;11.030;2022-08-14T04:45:15;97543.56;;;16.07;100.00
68226;BME280;55045;49.410;11.030;2022-08-14T04:48:18;97547.97;;;16.07;100.00
68226;BME280;55045;49.410;11.030;2022-08-14T04:51:42;97522.44;;;15.88;100.00
68226;BME280;55045;49.410;11.030;2022-08-14T04:54:58;97554.13;;;16.17;100.00
68226;BME280;55045;49.410;11.030;2022-08-14T04:58:03;97526.59;;;16.45;100.00
68226;BME280;55045;49.410;11.030;2022-08-14T05:01:09;97532.22;;;16.29;100.00
68226;BME280;55045;49.410;11.030;2022-08-14T05:04:21;97537.00;;;16.56;100.00
68226;BME280;55045;49.410;11.030;2022-08-14T05:07:27;97529.56;;;16.40;100.00
68226;BME280;55045;49.410;11.030;2022-08-14T05:10:53;97543.88;;;16.68;100.00
68226;BME280;55045;49.410;11.030;2022-08-14T05:13:57;97542.31;;;16.66;100.00
68226;BME280;55045;49.410;11.030;2022-08-14T05:17:22;97541.78;;;16.83;100.00
68226;BME280;55045;49.410;11.030;2022-08-14T05:20:46;97548.06;;;17.13;100.00
68226;BME280;55045;49.410;11.030;2022-08-14T05:24:09;97548.25;;;17.21;100.00
68226;BME280;55045;49.410;11.030;2022-08-14T05:27:21;97525.06;;;17.47;100.00
68226;BME280;55045;49.410;11.030;2022-08-14T05:30:25;97544.41;;;17.55;100.00
68226;BME280;55045;49.410;11.030;2022-08-14T05:33:29;97546.06;;;17.56;100.00
68226;BME280;55045;49.410;11.030;2022-08-14T05:36:34;97541.03;;;18.05;100.00
68226;BME280;55045;49.410;11.030;2022-08-14T05:39:40;97540.00;;;17.87;100.00
68226;BME280;55045;49.410;11.030;2022-08-14T05:42:45;97548.31;;;17.92;100.00
68226;BME280;55045;49.410;11.030;2022-08-14T05:45:54;97536.75;;;18.04;100.00
68226;BME280;55045;49.410;11.030;2022-08-14T05:49:00;97553.84;;;18.67;100.00
68226;BME280;55045;49.410;11.030;2022-08-14T05:52:05;97550.09;;;18.51;100.00
68226;BME280;55045;49.410;11.030;2022-08-14T05:55:11;97512.63;;;18.39;100.00
68226;BME280;55045;49.410;11.030;2022-08-14T05:58:15;97544.41;;;19.13;100.00
68226;BME280;55045;49.410;11.030;2022-08-14T06:01:21;97546.78;;;19.73;100.00
68226;BME280;55045;49.410;11.030;2022-08-14T06:04:24;97543.66;;;20.32;100.00
68226;BME280;55045;49.410;11.030;2022-08-14T06:07:29;97542.28;;;20.74;100.00
68226;BME280;55045;49.410;11.030;2022-08-14T06:10:32;97539.50;;;20.75;100.00
68226;BME280;55045;49.410;11.030;2022-08-14T06:13:39;97536.41;;;21.23;100.00
68226;BME280;55045;49.410;11.030;2022-08-14T06:16:47;97539.94;;;21.32;100.00
68226;BME280;55045;49.410;11.030;2022-08-14T06:19:53;97546.94;;;21.23;100.00
68226;BME280;55045;49.410;11.030;2022-08-14T06:22:57;97540.31;;;22.05;100.00
68226;BME280;55045;49.410;11.030;2022-08-14T06:26:03;97505.81;;;21.31;100.00
68226;BME280;55045;49.410;11.030;2022-08-14T06:29:08;97531.00;;;22.35;100.00
68226;BME280;55045;49.410;11.030;2022-08-14T06:32:12;97532.56;;;22.79;100.00
68226;BME280;55045;49.410;11.030;2022-08-14T06:35:36;97536.63;;;22.32;100.00
68226;BME280;55045;49.410;11.030;2022-08-14T06:38:41;97531.53;;;22.55;100.00
68226;BME280;55045;49.410;11.030;2022-08-14T06:41:44;97502.50;;;22.96;100.00
68226;BME280;55045;49.410;11.030;2022-08-14T06:45:01;97532.88;;;23.33;100.00
68226;BME280;55045;49.410;11.030;2022-08-14T06:48:11;97534.19;;;23.28;100.00
68226;BME280;55045;49.410;11.030;2022-08-14T06:51:18;97533.94;;;22.91;100.00
68226;BME280;55045;49.410;11.030;2022-08-14T06:54:23;97547.06;;;23.48;100.00
68226;BME280;55045;49.410;11.030;2022-08-14T06:57:37;97539.75;;;23.58;100.00
68226;BME280;55045;49.410;11.030;2022-08-14T07:00:43;97529.44;;;23.08;100.00
68226;BME280;55045;49.410;11.030;2022-08-14T07:04:07;97529.38;;;24.04;95.92
68226;BME280;55045;49.410;11.030;2022-08-14T07:07:35;97530.94;;;24.21;95.05
68226;BME280;55045;49.410;11.030;2022-08-14T07:10:40;97528.59;;;23.32;100.00
68226;BME280;55045;49.410;11.030;2022-08-14T07:13:45;97532.25;;;24.33;94.45
68226;BME280;55045;49.410;11.030;2022-08-14T07:16:52;97529.72;;;24.01;95.61
68226;BME280;55045;49.410;11.030;2022-08-14T07:19:56;97527.03;;;24.09;96.35
68226;BME280;55045;49.410;11.030;2022-08-14T07:23:00;97501.16;;;23.80;97.55
68226;BME280;55045;49.410;11.030;2022-08-14T07:26:10;97514.63;;;24.40;91.67
68226;BME280;55045;49.410;11.030;2022-08-14T07:29:15;97515.13;;;25.42;85.95
68226;BME280;55045;49.410;11.030;2022-08-14T07:32:26;97504.84;;;25.10;87.61
68226;BME280;55045;49.410;11.030;2022-08-14T07:35:35;97505.56;;;25.04;86.91
68226;BME280;55045;49.410;11.030;2022-08-14T07:39:00;97495.00;;;24.19;93.84
68226;BME280;55045;49.410;11.030;2022-08-14T07:42:14;97489.03;;;24.56;91.03
68226;BME280;55045;49.410;11.030;2022-08-14T07:45:23;97495.44;;;25.51;85.73
68226;BME280;55045;49.410;11.030;2022-08-14T07:48:38;97485.72;;;26.03;80.58
68226;BME280;55045;49.410;11.030;2022-08-14T07:51:42;97431.53;;;25.82;78.44
68226;BME280;55045;49.410;11.030;2022-08-14T07:54:46;97466.34;;;25.58;82.52
68226;BME280;55045;49.410;11.030;2022-08-14T07:57:49;97462.47;;;25.61;79.59
68226;BME280;55045;49.410;11.030;2022-08-14T08:00:54;97458.03;;;25.76;79.00
68226;BME280;55045;49.410;11.030;2022-08-14T08:04:02;97456.19;;;26.77;71.93
68226;BME280;55045;49.410;11.030;2022-08-14T08:07:17;97456.81;;;26.51;72.06
68226;BME280;55045;49.410;11.030;2022-08-14T08:10:23;97456.38;;;26.32;73.22
68226;BME280;55045;49.410;11.030;2022-08-14T08:13:54;97444.16;;;27.02;68.51
68226;BME280;55045;49.410;11.030;2022-08-14T08:16:59;97443.38;;;27.08;67.24
68226;BME280;55045;49.410;11.030;2022-08-14T08:20:05;97449.16;;;26.41;71.29
68226;BME280;55045;49.410;11.030;2022-08-14T08:23:13;97450.00;;;27.19;66.08
68226;BME280;55045;49.410;11.030;2022-08-14T08:26:28;97440.78;;;26.93;64.88
68226;BME280;55045;49.410;11.030;2022-08-14T08:29:32;97435.84;;;27.53;60.31
68226;BME280;55045;49.410;11.030;2022-08-14T08:32:40;97433.28;;;27.32;57.57
68226;BME280;55045;49.410;11.030;2022-08-14T08:35:46;97440.94;;;27.41;57.99
68226;BME280;55045;49.410;11.030;2022-08-14T08:38:59;97424.59;;;27.16;58.62
68226;BME280;55045;49.410;11.030;2022-08-14T08:42:24;97440.50;;;27.72;54.24
68226;BME280;55045;49.410;11.030;2022-08-14T08:45:39;97430.72;;;27.99;51.88
68226;BME280;55045;49.410;11.030;2022-08-14T08:48:45;97436.72;;;27.60;55.49
68226;BME280;55045;49.410;11.030;2022-08-14T08:52:01;97427.44;;;27.49;55.97
68226;BME280;55045;49.410;11.030;2022-08-14T08:55:06;97427.25;;;27.58;56.37
68226;BME280;55045;49.410;11.030;2022-08-14T08:58:15;97421.53;;;27.54;55.58
68226;BME280;55045;49.410;11.030;2022-08-14T09:01:27;97357.81;;;27.52;51.88
68226;BME280;55045;49.410;11.030;2022-08-14T09:04:35;97432.00;;;28.10;50.40
68226;BME280;55045;49.410;11.030;2022-08-14T09:08:08;97406.63;;;27.66;50.89
68226;BME280;55045;49.410;11.030;2022-08-14T09:11:31;97405.47;;;27.89;51.78
68226;BME280;55045;49.410;11.030;2022-08-14T09:14:37;97418.38;;;27.85;51.55
68226;BME280;55045;49.410;11.030;2022-08-14T09:17:42;97412.50;;;27.14;54.37
68226;BME280;55045;49.410;11.030;2022-08-14T09:20:49;97414.72;;;27.93;52.30
68226;BME280;55045;49.410;11.030;2022-08-14T09:23:57;97423.56;;;27.52;52.19
68226;BME280;55045;49.410;11.030;2022-08-14T09:27:21;97428.16;;;28.39;48.98
68226;BME280;55045;49.410;11.030;2022-08-14T09:30:24;97415.53;;;27.87;49.63
68226;BME280;55045;49.410;11.030;2022-08-14T09:34:49;97410.41;;;27.85;49.38
68226;BME280;55045;49.410;11.030;2022-08-14T09:38:07;97410.44;;;27.98;48.95
68226;BME280;55045;49.410;11.030;2022-08-14T09:41:33;97390.91;;;27.78;47.82
68226;BME280;55045;49.410;11.030;2022-08-14T09:45:11;97415.53;;;27.87;48.76
68226;BME280;55045;49.410;11.030;2022-08-14T09:48:18;97390.00;;;27.64;49.90
68226;BME280;55045;49.410;11.030;2022-08-14T09:51:39;97415.28;;;27.75;49.73
68226;BME280;55045;49.410;11.030;2022-08-14T09:54:52;97404.91;;;28.00;49.10
68226;BME280;55045;49.410;11.030;2022-08-14T09:58:09;97409.81;;;27.96;48.52
68226;BME280;55045;49.410;11.030;2022-08-14T10:01:21;97397.00;;;27.65;50.13
68226;BME280;55045;49.410;11.030;2022-08-14T10:04:26;97403.50;;;28.17;48.25
68226;BME280;55045;49.410;11.030;2022-08-14T10:07:48;97394.66;;;27.90;49.17
68226;BME280;55045;49.410;11.030;2022-08-14T10:10:58;97392.25;;;28.22;48.20
68226;BME280;55045;49.410;11.030;2022-08-14T10:14:13;97385.66;;;28.04;46.64
68226;BME280;55045;49.410;11.030;2022-08-14T10:17:35;97371.00;;;27.74;49.60
68226;BME280;55045;49.410;11.030;2022-08-14T10:20:43;97372.59;;;28.82;46.27
68226;BME280;55045;49.410;11.030;2022-08-14T10:23:55;97365.81;;;28.33;46.61
68226;BME280;55045;49.410;11.030;2022-08-14T10:26:59;97347.94;;;28.27;46.48
68226;BME280;55045;49.410;11.030;2022-08-14T10:30:11;97355.38;;;28.52;46.98
68226;BME280;55045;49.410;11.030;2022-08-14T10:33:25;97365.59;;;28.28;46.17
68226;BME280;55045;49.410;11.030;2022-08-14T10:36:32;97350.84;;;28.52;44.96
68226;BME280;55045;49.410;11.030;2022-08-14T10:39:58;97359.47;;;28.34;46.17
68226;BME280;55045;49.410;11.030;2022-08-14T10:43:16;97354.03;;;27.88;45.96
68226;BME280;55045;49.410;11.030;2022-08-14T10:46:24;97343.41;;;28.08;45.71
68226;BME280;55045;49.410;11.030;2022-08-14T10:49:57;97347.13;;;28.66;46.19
68226;BME280;55045;49.410;11.030;2022-08-14T10:53:02;97347.53;;;28.83;43.79
68226;BME280;55045;49.410;11.030;2022-08-14T10:56:10;97346.53;;;28.64;44.27
68226;BME280;55045;49.410;11.030;2022-08-14T10:59:40;97332.16;;;28.12;46.02
68226;BME280;55045;49.410;11.030;2022-08-14T11:02:54;97330.53;;;28.64;45.64
68226;BME280;55045;49.410;11.030;2022-08-14T11:06:11;97334.41;;;28.95;43.51
68226;BME280;55045;49.410;11.030;2022-08-14T11:09:16;97329.28;;;28.93;43.66
68226;BME280;55045;49.410;11.030;2022-08-14T11:12:22;97323.31;;;29.56;42.12
68226;BME280;55045;49.410;11.030;2022-08-14T11:15:37;97309.69;;;29.13;43.38
68226;BME280;55045;49.410;11.030;2022-08-14T11:18:46;97315.28;;;28.91;43.45
68226;BME280;55045;49.410;11.030;2022-08-14T11:21:52;97334.19;;;28.83;43.66
68226;BME280;55045;49.410;11.030;2022-08-14T11:25:01;97327.84;;;28.38;45.20
68226;BME280;55045;49.410;11.030;2022-08-14T11:28:09;97298.72;;;28.63;44.49
68226;BME280;55045;49.410;11.030;2022-08-14T11:31:21;97318.78;;;28.85;44.42
68226;BME280;55045;49.410;11.030;2022-08-14T11:34:25;97313.25;;;28.67;43.82
68226;BME280;55045;49.410;11.030;2022-08-14T11:37:34;97307.88;;;29.07;43.22
68226;BME280;55045;49.410;11.030;2022-08-14T11:40:41;97296.88;;;29.28;43.31
68226;BME280;55045;49.410;11.030;2022-08-14T11:43:50;97299.94;;;30.15;40.63
68226;BME280;55045;49.410;11.030;2022-08-14T11:46:59;97290.72;;;29.34;40.86
68226;BME280;55045;49.410;11.030;2022-08-14T11:50:12;97296.97;;;29.60;40.11
68226;BME280;55045;49.410;11.030;2022-08-14T11:53:35;97286.81;;;29.30;40.98
68226;BME280;55045;49.410;11.030;2022-08-14T11:56:43;97292.66;;;29.90;39.00
68226;BME280;55045;49.410;11.030;2022-08-14T12:00:01;97275.69;;;30.03;39.16
68226;BME280;55045;49.410;11.030;2022-08-14T12:03:09;97280.66;;;30.31;37.78
68226;BME280;55045;49.410;11.030;2022-08-14T12:06:18;97277.81;;;30.26;37.98
68226;BME280;55045;49.410;11.030;2022-08-14T12:09:40;97262.41;;;30.46;38.57
68226;BME280;55045;49.410;11.030;2022-08-14T12:12:44;97244.00;;;30.75;36.70
68226;BME280;55045;49.410;11.030;2022-08-14T12:15:57;97255.81;;;30.24;38.32
68226;BME280;55045;49.410;11.030;2022-08-14T12:19:13;97258.97;;;29.82;40.35
68226;BME280;55045;49.410;11.030;2022-08-14T12:22:17;97243.06;;;30.44;38.49
68226;BME280;55045;49.410;11.030;2022-08-14T12:25:32;97249.88;;;30.22;37.75
68226;BME280;55045;49.410;11.030;2022-08-14T12:28:36;97246.69;;;30.31;37.54
68226;BME280;55045;49.410;11.030;2022-08-14T12:32:02;97228.56;;;30.33;37.16
68226;BME280;55045;49.410;11.030;2022-08-14T12:35:10;97222.56;;;30.38;37.66
68226;BME280;55045;49.410;11.030;2022-08-14T12:38:13;97228.75;;;30.14;38.22
68226;BME280;55045;49.410;11.030;2022-08-14T12:41:24;97226.63;;;29.34;39.46
68226;BME280;55045;49.410;11.030;2022-08-14T12:44:29;97222.94;;;29.67;38.88
68226;BME280;55045;49.410;11.030;2022-08-14T12:47:34;97214.75;;;29.87;38.74
68226;BME280;55045;49.410;11.030;2022-08-14T12:50:40;97177.25;;;29.43;38.56
68226;BME280;55045;49.410;11.030;2022-08-14T12:53:51;97207.50;;;29.31;38.96
68226;BME280;55045;49.410;11.030;2022-08-14T12:57:05;97198.31;;;29.20;37.88
68226;BME280;55045;49.410;11.030;2022-08-14T13:00:12;97192.06;;;29.39;37.65
68226;BME280;55045;49.410;11.030;2022-08-14T13:03:27;97190.94;;;29.85;36.94
68226;BME280;55045;49.410;11.030;2022-08-14T13:06:33;97176.50;;;30.36;35.87
68226;BME280;55045;49.410;11.030;2022-08-14T13:09:37;97171.63;;;30.63;36.30
68226;BME280;55045;49.410;11.030;2022-08-14T13:12:42;97158.94;;;30.58;36.82
68226;BME280;55045;49.410;11.030;2022-08-14T13:16:07;97148.47;;;30.57;36.59
68226;BME280;55045;49.410;11.030;2022-08-14T13:19:24;97152.31;;;30.61;36.76
68226;BME280;55045;49.410;11.030;2022-08-14T13:22:30;97147.41;;;31.24;35.47
68226;BME280;55045;49.410;11.030;2022-08-14T13:25:41;97138.13;;;30.60;35.20
68226;BME280;55045;49.410;11.030;2022-08-14T13:28:59;97123.41;;;30.51;35.24
68226;BME280;55045;49.410;11.030;2022-08-14T13:32:06;97125.13;;;30.64;35.40
68226;BME280;55045;49.410;11.030;2022-08-14T13:35:14;97119.75;;;30.82;35.24
68226;BME280;55045;49.410;11.030;2022-08-14T13:38:19;97122.41;;;31.12;35.06
68226;BME280;55045;49.410;11.030;2022-08-14T13:41:26;97110.44;;;30.85;35.81
68226;BME280;55045;49.410;11.030;2022-08-14T13:44:37;97107.97;;;30.72;35.43
68226;BME280;55045;49.410;11.030;2022-08-14T13:47:44;97099.00;;;30.96;35.15
68226;BME280;55045;49.410;11.030;2022-08-14T13:50:52;97089.34;;;30.03;36.98
68226;BME280;55045;49.410;11.030;2022-08-14T13:53:58;97087.00;;;30.50;36.49
68226;BME280;55045;49.410;11.030;2022-08-14T13:57:13;97087.25;;;30.12;35.92
68226;BME280;55045;49.410;11.030;2022-08-14T14:00:20;97086.78;;;29.53;36.77
68226;BME280;55045;49.410;11.030;2022-08-14T14:03:37;97087.94;;;29.33;37.97
68226;BME280;55045;49.410;11.030;2022-08-14T14:06:45;97080.38;;;29.98;37.32
68226;BME280;55045;49.410;11.030;2022-08-14T14:09:52;97077.44;;;30.24;37.12
68226;BME280;55045;49.410;11.030;2022-08-14T14:12:57;97078.41;;;30.66;35.55
68226;BME280;55045;49.410;11.030;2022-08-14T14:16:01;97077.78;;;30.64;35.33
68226;BME280;55045;49.410;11.030;2022-08-14T14:19:07;97075.41;;;31.16;35.19
68226;BME280;55045;49.410;11.030;2022-08-14T14:22:13;97064.78;;;31.10;33.81
68226;BME280;55045;49.410;11.030;2022-08-14T14:25:39;97065.59;;;31.10;34.18
68226;BME280;55045;49.410;11.030;2022-08-14T14:28:55;97067.78;;;31.02;33.87
68226;BME280;55045;49.410;11.030;2022-08-14T14:32:00;97060.75;;;30.77;34.07
68226;BME280;55045;49.410;11.030;2022-08-14T14:35:05;97053.53;;;30.59;34.29
68226;BME280;55045;49.410;11.030;2022-08-14T14:38:16;97053.91;;;30.93;33.63
68226;BME280;55045;49.410;11.030;2022-08-14T14:41:23;97040.13;;;30.66;33.49
68226;BME280;55045;49.410;11.030;2022-08-14T14:44:32;97034.84;;;31.01;33.00
68226;BME280;55045;49.410;11.030;2022-08-14T14:47:36;97041.31;;;30.82;33.34
68226;BME280;55045;49.410;11.030;2022-08-14T14:50:40;97037.69;;;31.18;33.55
68226;BME280;55045;49.410;11.030;2022-08-14T14:53:45;97027.09;;;31.46;32.99
68226;BME280;55045;49.410;11.030;2022-08-14T14:56:49;97022.56;;;31.23;33.86
68226;BME280;55045;49.410;11.030;2022-08-14T14:59:55;97029.16;;;31.09;33.07
68226;BME280;55045;49.410;11.030;2022-08-14T15:02:58;97025.81;;;31.25;32.89
68226;BME280;55045;49.410;11.030;2022-08-14T15:06:02;97038.31;;;30.90;33.32
68226;BME280;55045;49.410;11.030;2022-08-14T15:09:07;97025.03;;;30.95;33.27
68226;BME280;55045;49.410;11.030;2022-08-14T15:12:19;97028.69;;;30.40;34.12
68226;BME280;55045;49.410;11.030;2022-08-14T15:15:42;97026.03;;;30.22;35.53
68226;BME280;55045;49.410;11.030;2022-08-14T15:18:47;97022.50;;;30.03;35.62
68226;BME280;55045;49.410;11.030;2022-08-14T15:21:50;97021.13;;;30.19;36.07
68226;BME280;55045;49.410;11.030;2022-08-14T15:24:55;97018.53;;;29.94;35.52
68226;BME280;55045;49.410;11.030;2022-08-14T15:27:59;97023.34;;;30.04;35.69
68226;BME280;55045;49.410;11.030;2022-08-14T15:34:33;97010.59;;;30.06;35.24
68226;BME280;55045;49.410;11.030;2022-08-14T15:37:53;97010.72;;;30.29;34.59
68226;BME280;55045;49.410;11.030;2022-08-14T15:40:58;97012.34;;;30.60;34.72
68226;BME280;55045;49.410;11.030;2022-08-14T15:44:09;97019.06;;;30.21;35.79
68226;BME280;55045;49.410;11.030;2022-08-14T15:47:29;97013.56;;;30.64;35.00
68226;BME280;55045;49.410;11.030;2022-08-14T15:50:34;97002.75;;;30.41;34.20
68226;BME280;55045;49.410;11.030;2022-08-14T15:53:41;97004.50;;;30.65;34.68
68226;BME280;55045;49.410;11.030;2022-08-14T15:56:58;97002.09;;;30.76;34.59
68226;BME280;55045;49.410;11.030;2022-08-14T16:00:03;97007.81;;;30.91;34.69
68226;BME280;55045;49.410;11.030;2022-08-14T16:03:45;97009.09;;;30.58;34.00
68226;BME280;55045;49.410;11.030;2022-08-14T16:06:51;97001.72;;;30.72;33.95
68226;BME280;55045;49.410;11.030;2022-08-14T16:09:56;96998.84;;;30.55;34.36
68226;BME280;55045;49.410;11.030;2022-08-14T16:13:20;96989.06;;;30.49;35.71
68226;BME280;55045;49.410;11.030;2022-08-14T16:16:43;96994.41;;;30.49;36.02
68226;BME280;55045;49.410;11.030;2022-08-14T16:19:53;96991.50;;;30.51;36.91
68226;BME280;55045;49.410;11.030;2022-08-14T16:22:58;96983.25;;;30.52;37.23
68226;BME280;55045;49.410;11.030;2022-08-14T16:26:13;96967.72;;;30.13;37.32
68226;BME280;55045;49.410;11.030;2022-08-14T16:29:20;96975.78;;;30.24;37.31
68226;BME280;55045;49.410;11.030;2022-08-14T16:32:24;96979.16;;;30.20;35.49
68226;BME280;55045;49.410;11.030;2022-08-14T16:35:37;96970.72;;;30.04;36.62
68226;BME280;55045;49.410;11.030;2022-08-14T16:38:59;96970.06;;;30.09;36.48